createdAt,value
2024-05-09T00:02:46.785Z,50.98
2024-05-09T00:07:52.811Z,51.34
2024-05-09T00:12:58.834Z,51.68
2024-05-09T00:18:06.635Z,51.68
2024-05-09T00:23:14.068Z,51.83
2024-05-09T00:28:20.230Z,52.37
2024-05-09T00:33:26.594Z,52.63
2024-05-09T00:38:33.283Z,52.95
2024-05-09T00:43:39.515Z,53.25
2024-05-09T00:48:45.666Z,53.38
2024-05-09T00:53:51.660Z,53.73
2024-05-09T00:58:57.557Z,53.99
2024-05-09T01:04:03.750Z,54.49
2024-05-09T01:09:09.979Z,54.82
2024-05-09T01:14:16.122Z,54.79
2024-05-09T01:19:25.800Z,55.19
2024-05-09T01:24:32.216Z,55.26
2024-05-09T01:29:38.137Z,55.68
2024-05-09T01:34:44.332Z,56.01
2024-05-09T01:39:50.614Z,56.07
2024-05-09T01:44:56.860Z,56.42
2024-05-09T01:50:03.538Z,56.65
2024-05-09T01:55:09.710Z,56.99
2024-05-09T02:00:22.255Z,57.01
2024-05-09T02:05:35.975Z,57.30
2024-05-09T02:10:42.698Z,57.46
2024-05-09T02:15:52.114Z,57.86
2024-05-09T02:20:58.157Z,58.02
2024-05-09T02:26:04.545Z,58.41
2024-05-09T02:31:13.635Z,59.16
2024-05-09T02:36:19.879Z,59.67
2024-05-09T02:41:26.836Z,59.82
2024-05-09T02:46:35.137Z,59.81
2024-05-09T02:51:41.053Z,59.73
2024-05-09T02:56:47.881Z,60.90
2024-05-09T03:01:53.954Z,61.81
2024-05-09T03:07:00.075Z,62.27
2024-05-09T03:12:08.217Z,62.81
2024-05-09T03:17:14.573Z,63.20
2024-05-09T03:22:20.999Z,63.21
2024-05-09T03:27:27.802Z,63.56
2024-05-09T03:32:34.352Z,64.16
2024-05-09T03:37:40.557Z,64.41
2024-05-09T03:42:46.581Z,64.60
2024-05-09T03:47:52.920Z,64.29
2024-05-09T03:52:59.086Z,64.11
2024-05-09T03:58:07.608Z,63.31
2024-05-09T04:03:13.859Z,62.66
2024-05-09T04:08:20.584Z,61.80
2024-05-09T04:13:26.969Z,61.65
2024-05-09T04:18:33.864Z,59.71
2024-05-09T04:23:40.160Z,54.67
2024-05-09T04:28:46.665Z,51.18
2024-05-09T04:33:53.224Z,47.95
2024-05-09T04:39:00.061Z,43.27
2024-05-09T04:44:07.482Z,39.39
2024-05-09T04:49:13.902Z,36.37
2024-05-09T04:59:29.734Z,30.91
2024-05-09T05:04:36.095Z,30.08
2024-05-09T05:09:42.216Z,28.50
2024-05-09T05:14:48.047Z,27.70
2024-05-09T05:19:54.209Z,26.35
2024-05-09T05:25:00.648Z,24.94
2024-05-09T05:30:14.658Z,23.81
2024-05-09T05:35:24.084Z,22.81
2024-05-09T05:40:36.281Z,22.42
2024-05-09T05:45:44.725Z,21.66
2024-05-09T05:50:50.686Z,20.81
2024-05-09T05:55:56.944Z,20.52
2024-05-09T06:01:03.044Z,20.22
2024-05-09T06:06:09.119Z,19.74
2024-05-09T06:11:15.503Z,19.06
2024-05-09T06:16:21.768Z,18.67
2024-05-09T06:21:27.786Z,18.49
2024-05-09T06:26:34.298Z,17.80
2024-05-09T06:31:42.014Z,17.95
2024-05-09T06:36:48.095Z,17.85
2024-05-09T06:41:54.189Z,17.70
2024-05-09T06:47:00.666Z,17.68
2024-05-09T06:52:06.290Z,17.40
2024-05-09T06:57:12.575Z,17.87
2024-05-09T07:02:18.722Z,17.33
2024-05-09T07:07:25.264Z,17.10
2024-05-09T07:12:32.514Z,16.58
2024-05-09T07:17:39.219Z,16.56
2024-05-09T07:22:45.681Z,16.57
2024-05-09T07:27:52.001Z,16.09
2024-05-09T07:32:58.913Z,15.53
2024-05-09T07:38:06.251Z,15.53
2024-05-09T07:43:12.856Z,15.39
2024-05-09T07:53:40.558Z,15.28
2024-05-09T07:58:51.775Z,15.06
2024-05-09T08:03:58.569Z,14.70
2024-05-09T08:09:08.250Z,15.10
2024-05-09T08:14:19.952Z,15.37
2024-05-09T08:19:26.374Z,16.33
2024-05-09T08:24:32.653Z,16.11
2024-05-09T08:29:38.999Z,15.90
2024-05-09T08:35:24.356Z,15.47
2024-05-09T08:40:34.572Z,16.35
2024-05-09T08:45:44.033Z,16.08
2024-05-09T08:50:53.108Z,16.71
2024-05-09T08:56:04.064Z,15.91
2024-05-09T09:01:11.099Z,15.95
2024-05-09T09:06:18.063Z,16.18
2024-05-09T09:11:24.261Z,16.34
2024-05-09T09:16:36.776Z,17.12
2024-05-09T09:21:42.972Z,17.18
2024-05-09T09:26:49.061Z,17.36
2024-05-09T09:32:01.562Z,16.67
2024-05-09T09:37:11.663Z,17.02
2024-05-09T09:42:18.204Z,16.96
2024-05-09T09:47:26.266Z,17.27
2024-05-09T09:52:32.656Z,17.10
2024-05-09T09:57:40.078Z,17.58
2024-05-09T10:02:49.410Z,16.60
2024-05-09T10:07:56.909Z,16.58
2024-05-09T10:13:06.816Z,16.93
2024-05-09T10:18:13.456Z,17.56
2024-05-09T10:23:27.321Z,17.70
2024-05-09T10:28:34.920Z,17.70
2024-05-09T10:33:46.121Z,17.76
2024-05-09T10:38:53.639Z,18.26
2024-05-09T10:43:59.720Z,18.16
2024-05-09T10:49:07.999Z,17.91
2024-05-09T10:54:14.579Z,18.24
2024-05-09T10:59:20.756Z,18.35
2024-05-09T11:04:27.499Z,18.71
2024-05-09T11:09:34.059Z,17.97
2024-05-09T11:14:40.183Z,18.81
2024-05-09T11:19:46.450Z,18.10
2024-05-09T11:24:54.671Z,18.38
2024-05-09T11:30:01.548Z,19.46
2024-05-09T11:35:08.143Z,20.02
2024-05-09T11:40:21.350Z,19.41
2024-05-09T11:45:32.451Z,19.94
2024-05-09T11:50:38.663Z,20.63
2024-05-09T11:55:44.616Z,20.30
2024-05-09T12:00:50.991Z,21.49
2024-05-09T12:05:58.814Z,22.29
2024-05-09T12:11:05.650Z,21.69
2024-05-09T12:16:12.338Z,23.41
2024-05-09T12:21:18.872Z,23.61
2024-05-09T12:26:25.387Z,24.59
2024-05-09T12:31:32.317Z,25.48
2024-05-09T12:36:38.454Z,25.03
2024-05-09T12:41:44.946Z,23.58
2024-05-09T12:46:50.845Z,24.63
2024-05-09T12:51:57.076Z,23.53
2024-05-09T12:57:03.313Z,24.04
2024-05-09T13:02:09.754Z,23.47
2024-05-09T13:07:16.574Z,23.97
2024-05-09T13:12:24.331Z,25.63
2024-05-09T13:17:31.302Z,25.28
2024-05-09T13:22:38.159Z,24.64
2024-05-09T13:27:44.258Z,24.93
2024-05-09T13:32:50.236Z,26.10
2024-05-09T13:37:56.307Z,26.52
2024-05-09T13:43:02.748Z,26.66
2024-05-09T13:48:11.019Z,25.78
2024-05-09T13:53:18.910Z,25.57
2024-05-09T13:58:25.584Z,25.98
2024-05-09T14:03:32.502Z,25.53
2024-05-09T14:08:46.555Z,25.50
2024-05-09T14:13:59.868Z,25.71
2024-05-09T14:19:06.203Z,26.14
2024-05-09T14:24:12.222Z,26.20
2024-05-09T14:29:18.143Z,28.24
2024-05-09T14:34:24.327Z,27.44
2024-05-09T14:39:30.675Z,27.84
2024-05-09T14:44:36.833Z,27.92
2024-05-09T14:49:43.870Z,27.83
2024-05-09T14:54:59.915Z,28.00
2024-05-09T15:00:17.433Z,27.87
2024-05-09T15:05:31.723Z,29.10
2024-05-09T15:10:38.596Z,28.59
2024-05-09T15:15:44.959Z,28.47
2024-05-09T15:20:51.217Z,28.99
2024-05-09T15:25:57.820Z,28.98
2024-05-09T15:31:04.091Z,29.16
2024-05-09T15:36:10.283Z,29.46
2024-05-09T15:41:16.580Z,29.71
2024-05-09T15:46:22.747Z,29.50
2024-05-09T15:51:29.466Z,29.60
2024-05-09T15:56:36.332Z,29.32
2024-05-09T16:01:42.603Z,29.45
2024-05-09T16:06:49.489Z,29.71
2024-05-09T16:11:55.489Z,30.05
2024-05-09T16:17:02.161Z,30.63
2024-05-09T16:22:08.440Z,30.11
2024-05-09T16:27:15.098Z,30.53
2024-05-09T16:32:21.391Z,30.87
2024-05-09T16:37:29.584Z,31.17
2024-05-09T16:42:36.466Z,31.29
2024-05-09T16:47:42.974Z,31.98
2024-05-09T16:52:49.157Z,31.60
2024-05-09T16:57:55.730Z,31.94
2024-05-09T17:03:02.285Z,32.07
2024-05-09T17:08:09.311Z,32.48
2024-05-09T17:13:15.740Z,32.60
2024-05-09T17:18:23.062Z,32.50
2024-05-09T17:23:34.322Z,32.74
2024-05-09T17:28:44.213Z,33.54
2024-05-09T17:33:50.682Z,34.27
2024-05-09T17:38:57.055Z,34.39
2024-05-09T17:44:03.785Z,34.95
2024-05-09T17:49:10.046Z,35.58
2024-05-09T17:54:16.396Z,37.35
2024-05-09T17:59:22.578Z,38.12
2024-05-09T18:04:30.968Z,38.50
2024-05-09T18:09:39.002Z,39.12
2024-05-09T18:14:45.001Z,40.26
2024-05-09T18:19:51.550Z,40.84
2024-05-09T18:24:57.980Z,41.57
2024-05-09T18:30:09.390Z,42.03
2024-05-09T18:35:16.084Z,42.18
2024-05-09T18:40:31.215Z,42.41
2024-05-09T18:45:41.629Z,43.68
2024-05-09T18:50:47.923Z,44.53
2024-05-09T18:55:54.158Z,45.25
2024-05-09T19:01:01.791Z,46.02
2024-05-09T19:06:08.206Z,47.15
2024-05-09T19:11:14.911Z,48.30
2024-05-09T19:16:21.280Z,48.73
2024-05-09T19:21:27.743Z,49.25
2024-05-09T19:26:34.142Z,49.74
2024-05-09T19:31:40.198Z,50.78
2024-05-09T19:36:46.478Z,51.57
2024-05-09T19:41:52.621Z,52.33
2024-05-09T19:46:58.906Z,52.80
2024-05-09T19:52:05.793Z,53.34
2024-05-09T19:57:13.630Z,53.37
2024-05-09T20:02:19.935Z,54.05
2024-05-09T20:07:25.995Z,54.85
2024-05-09T20:12:32.609Z,55.47
2024-05-09T20:17:39.445Z,55.74
2024-05-09T20:22:45.888Z,56.27
2024-05-09T20:27:52.539Z,56.84
2024-05-09T20:32:58.731Z,57.11
2024-05-09T20:38:05.238Z,57.45
2024-05-09T20:43:12.056Z,58.07
2024-05-09T20:48:18.245Z,58.26
2024-05-09T20:53:24.510Z,58.44
2024-05-09T20:58:31.248Z,58.84
2024-05-09T21:03:37.813Z,59.08
2024-05-09T21:08:44.797Z,59.35
2024-05-09T21:13:51.833Z,59.65
2024-05-09T21:18:58.136Z,59.99
2024-05-09T21:24:04.357Z,60.49
2024-05-09T21:29:11.539Z,60.60
2024-05-09T21:34:17.558Z,60.98
2024-05-09T21:39:24.709Z,61.25
2024-05-09T21:44:31.423Z,61.44
2024-05-09T21:49:37.360Z,61.74
2024-05-09T21:54:43.756Z,61.94
2024-05-09T21:59:49.855Z,62.35
2024-05-09T22:04:56.234Z,62.43
2024-05-09T22:10:02.604Z,62.76
2024-05-09T22:15:09.257Z,62.85
2024-05-09T22:20:22.205Z,62.83
2024-05-09T22:25:35.243Z,63.14
2024-05-09T22:30:43.913Z,63.34
2024-05-09T22:35:51.270Z,63.68
2024-05-09T22:40:57.370Z,63.73
2024-05-09T22:46:03.643Z,63.90
2024-05-09T22:51:09.627Z,64.10
2024-05-09T22:56:25.476Z,64.47
2024-05-09T23:01:32.130Z,64.57
2024-05-09T23:06:41.348Z,64.76
2024-05-09T23:11:47.399Z,64.71
2024-05-09T23:16:53.444Z,65.14
2024-05-09T23:21:59.701Z,65.21
2024-05-09T23:27:06.341Z,65.45
2024-05-09T23:32:12.487Z,65.58
2024-05-09T23:37:18.846Z,65.78
2024-05-09T23:42:25.248Z,65.86
2024-05-09T23:47:31.406Z,65.95
2024-05-09T23:52:38.001Z,66.01
2024-05-09T23:57:44.416Z,66.16
